KVBT

Details ICAO KVBT
Name BENTONVILLE MUNI LOUISE M THADEN FLD
Region United States
Timezone America/Chicago (UTC-6.0)
Plans Departing 5
Arriving 2
Stats Elevation 1,296 ft / 395 m (AMSL)
Location 36.345728° -94.219332°
Runways 1
Magnetic Variation 1.532° E
Sunrise 2017-12-16 13:23:18 UTC / 2017-12-16 07:23:18 Local
Sunset 2017-12-16 23:04:44 UTC / 2017-12-16 17:04:44 Local
Advertisement - Login to hide

Runways

ID Width Length Bearing (true) Bearing (mag) Surface Threshold Offset Overrun Length
18 65 ft / 20 m 4,091 ft / 1,247 m 180.42° 178.89° Asphalt 227 ft / 69 m 0 ft / 0 m
36 65 ft / 20 m 4,091 ft / 1,247 m 0.42° 358.89° Asphalt 0 ft / 0 m 0 ft / 0 m

Map

Weather


0- 5 10 15 20 25 30 35+ Temperature / ° C

Clouds and Precipitation
Forecast for 2017-12-16 18:00 UTC. Updated 2 hours ago

Ground ~20,000 ft ~40,000 ft Winds

METAR

KVBT 161856Z AUTO 23015G19KT 8SM CLR 13/M03 A3004 RMK AO2 SLP178 T01281033

TAF

Not found

Frequencies

Recorded 134.97 MHz AWOS 3
Clearance 121.05 MHz RAZORBACK CLNC DEL
Unicom 122.80 MHz CTAF/UNICOM
Approach 121.00 MHz RAZORBACK APP/DEP
Warning: Do not use this data for real-world aviation or navigation. No guarantee of current accuracy is given.